Alderson, OK (74522)

05:16 PM CDT on Juli 24, 2016 (GMT -0500)
South McAlester | | Change Station
Aktivtvarsel: Heat Advisory

Elev 751 ft 34.92 °N, 95.75 °W | Updated 15 seconds ago

Clear
Klart
99.7 ° F
Føles som 113 ° F
N
3.2
Vind Skiftende Vind NNØ

I dag
Høj -- | Lav -- ° F
--% Risiko for nedbør
I går
Høj -- | Lav -- ° F
Precip. -- tommer
Tryk 29.87 tommer
Sigtbarhed 10.0 mil
Skyer Klart
Varmeindeks 113 ° F
Dugpunkt 75 ° F
Luftfugtighed 45%
Regnmængde 0.00 tommer
Snedybde Ikke tilgængelig.
6:26 AM 8:31 PM
Aftagende måne, 72% visible
METAR KMLC 242153Z AUTO 16003KT 10SM CLR 37/22 A2990 RMK AO2 SLP114 T03720222
Tryk 29.87 tommer
Sigtbarhed 10.0 mil
Skyer Klart
Varmeindeks 113 ° F
Dugpunkt 75 ° F
Luftfugtighed 45%
Regnmængde 0.00 tommer
Snedybde Ikke tilgængelig.
6:26 AM 8:31 PM
Aftagende måne, 72% visible
METAR KMLC 242153Z AUTO 16003KT 10SM CLR 37/22 A2990 RMK AO2 SLP114 T03720222

10-Day Weather Forecast

Almanac

Astronomi

Jul. 24, 2016 Opgang Nedgang
Faktisktidspunkt
Civilttusmørke
Nautisktusmørke
Astronomisktusmørke
Måne
Synligtlys’ længde
Dagens længde
Tomorrow will be .
, % of the Moon is Illuminated

Ekstremer i dag

State Highs State Lows

Community

WunderPhotos

Upload Photos

1,927,202 Billeder uploaded!

WunderBlog® & News

Nearby

Luftkvalitet

  Luftkvalitet AQ-indeks Forureningskilder
Not available.

Snedybde

Station Depth Højde

Jordskælvsaktivitet

By Distance Mag. Time & Date
Minimum magnitude displayed is 2.5.

Kystnære vandtemperaturer

Sted Temperatur

Stations

Vejrstationer i nærheden

Stationenssted Temp. Vindeffekt Dugpunkt Luftfugtighed Vind Precip. Elev Opdateret Type
                   

Watches & Warnings

Heat Advisory
Issued: 10:48 AM CDT Jul. 24, 2016 – National Weather Service

... Heat advisory remains in effect until 9 PM CDT this evening...

* affected area... in Arkansas... Benton... Carroll... Washington...
Madison... Crawford... Franklin... and Sebastian counties. In
Oklahoma... Pushmataha... Choctaw... Osage... Washington...
Nowata... Craig... Ottawa... Pawnee... Tulsa... Rogers... Mayes...
Delaware... creek... Okfuskee... Okmulgee... Wagoner... Cherokee...
Adair... Muskogee... McIntosh... Sequoyah... Pittsburg...
Haskell... Latimer... and Le Flore counties.

* Temperature... afternoon heat indices from 102 to 109 are
expected.

* Impacts... the combination of hot temperatures and high humidity
will combine to create a dangerous situation in which heat
illnesses are possible.

Precautionary/preparedness actions...

Take extra precautions if you work or spend time outside. When
possible... reschedule strenuous activities to early morning or
evening. Drink plenty of water to stay hydrated.

Never leave anyone in a closed... parked vehicle. Temperatures
inside can reach over 150 degrees quickly... resulting in heat
stroke and death.

Pets can also succumb to the effects of excessive heat. Ensure
pets have adequate drinking water and a shady place to rest.